createdAt,value
2022-11-05T00:01:42.166Z,6.23
2022-11-05T00:04:46.617Z,7.10
2022-11-05T00:07:54.525Z,6.07
2022-11-05T00:10:43.030Z,6.10
2022-11-05T00:13:59.200Z,6.83
2022-11-05T00:16:46.150Z,6.07
2022-11-05T00:19:33.365Z,6.03
2022-11-05T00:22:38.137Z,6.33
2022-11-05T00:25:25.178Z,5.67
2022-11-05T00:28:13.689Z,5.30
2022-11-05T00:31:02.914Z,5.90
2022-11-05T00:33:50.445Z,6.77
2022-11-05T00:36:37.645Z,5.37
2022-11-05T00:39:24.820Z,5.80
2022-11-05T00:42:29.426Z,5.80
2022-11-05T00:45:18.106Z,4.97
2022-11-05T00:48:22.977Z,4.80
2022-11-05T00:51:10.090Z,4.60
2022-11-05T00:53:57.298Z,4.30
2022-11-05T00:56:44.352Z,4.27
2022-11-05T00:59:31.190Z,4.37
2022-11-05T01:02:19.882Z,4.37
2022-11-05T01:05:07.856Z,4.20
2022-11-05T01:07:54.944Z,4.30
2022-11-05T01:10:42.581Z,4.47
2022-11-05T01:13:31.380Z,4.50
2022-11-05T01:16:18.860Z,4.33
2022-11-05T01:19:08.999Z,5.13
2022-11-05T01:21:56.139Z,4.60
2022-11-05T01:24:43.346Z,4.70
2022-11-05T01:27:30.802Z,4.87
2022-11-05T01:30:18.393Z,5.13
2022-11-05T01:33:05.604Z,4.60
2022-11-05T01:35:53.601Z,4.90
2022-11-05T01:38:40.807Z,5.33
2022-11-05T01:41:28.142Z,4.47
2022-11-05T01:45:03.468Z,5.10
2022-11-05T01:48:04.989Z,4.97
2022-11-05T01:50:57.660Z,4.50
2022-11-05T01:53:48.688Z,4.37
2022-11-05T01:56:38.783Z,5.00
2022-11-05T01:59:31.161Z,5.07
2022-11-05T02:02:19.759Z,5.67
2022-11-05T02:05:08.696Z,4.47
2022-11-05T02:07:57.551Z,4.70
2022-11-05T02:10:46.633Z,4.93
2022-11-05T02:13:34.193Z,5.13
2022-11-05T02:16:37.605Z,5.27
2022-11-05T02:20:00.877Z,5.57
2022-11-05T02:23:24.595Z,5.43
2022-11-05T02:26:54.363Z,5.17
2022-11-05T02:30:13.149Z,5.73
2022-11-05T02:33:15.372Z,5.07
2022-11-05T02:36:15.413Z,5.87
2022-11-05T02:39:12.663Z,6.17
2022-11-05T02:42:09.185Z,6.00
2022-11-05T02:45:03.901Z,6.80
2022-11-05T02:47:57.200Z,6.50
2022-11-05T02:50:55.242Z,6.13
2022-11-05T02:53:47.614Z,6.87
2022-11-05T02:56:39.011Z,6.13
2022-11-05T02:59:26.151Z,5.70
2022-11-05T03:02:13.755Z,6.03
2022-11-05T03:05:02.001Z,5.83
2022-11-05T03:07:57.215Z,6.63
2022-11-05T03:10:50.297Z,5.63
2022-11-05T03:13:44.701Z,5.30
2022-11-05T03:16:42.089Z,5.53
2022-11-05T03:19:37.867Z,5.83
2022-11-05T03:22:29.517Z,5.83
2022-11-05T03:25:22.660Z,5.00
2022-11-05T03:28:11.956Z,5.23
2022-11-05T03:30:59.969Z,5.50
2022-11-05T03:33:49.139Z,4.87
2022-11-05T03:36:41.248Z,4.70
2022-11-05T03:39:32.984Z,4.90
2022-11-05T03:42:26.709Z,4.77
2022-11-05T03:45:19.449Z,5.10
2022-11-05T03:48:10.411Z,5.03
2022-11-05T03:51:02.104Z,4.90
2022-11-05T03:53:52.754Z,5.17
2022-11-05T03:56:47.163Z,4.87
2022-11-05T03:59:41.984Z,5.00
2022-11-05T04:02:29.906Z,4.33
2022-11-05T04:05:17.140Z,4.97
2022-11-05T04:08:21.700Z,4.77
2022-11-05T04:11:27.033Z,4.30
2022-11-05T04:14:14.135Z,4.30
2022-11-05T04:17:09.445Z,4.50
2022-11-05T04:20:14.258Z,4.30
2022-11-05T04:23:20.096Z,4.87
2022-11-05T04:26:07.180Z,4.03
2022-11-05T04:29:11.910Z,4.73
2022-11-05T04:31:58.941Z,3.80
2022-11-05T04:34:47.604Z,4.27
2022-11-05T04:37:34.586Z,4.23
2022-11-05T04:40:21.836Z,4.30
2022-11-05T04:43:14.948Z,4.27
2022-11-05T04:46:02.535Z,4.63
2022-11-05T04:48:49.781Z,4.07
2022-11-05T04:51:38.384Z,4.17
2022-11-05T04:54:25.538Z,3.67
2022-11-05T04:57:13.014Z,4.10
2022-11-05T05:00:41.328Z,4.00
2022-11-05T05:03:28.019Z,3.90
2022-11-05T05:06:15.391Z,3.80
2022-11-05T05:09:03.779Z,4.17
2022-11-05T05:11:51.037Z,3.83
2022-11-05T05:14:37.982Z,4.20
2022-11-05T05:17:25.823Z,11.10
2022-11-05T05:20:30.356Z,5.60
2022-11-05T05:23:17.339Z,4.87
2022-11-05T05:26:06.154Z,4.63
2022-11-05T05:28:53.943Z,3.90
2022-11-05T05:31:41.414Z,4.40
2022-11-05T05:34:28.799Z,3.80
2022-11-05T05:37:16.183Z,4.27
2022-11-05T05:40:03.657Z,4.23
2022-11-05T05:42:55.863Z,3.93
2022-11-05T05:45:43.149Z,3.93
2022-11-05T05:48:30.156Z,3.70
2022-11-05T05:51:17.496Z,3.43
2022-11-05T05:54:04.982Z,3.60
2022-11-05T05:56:52.040Z,3.73
2022-11-05T05:59:40.695Z,3.77
2022-11-05T06:02:28.206Z,3.83
2022-11-05T06:05:15.482Z,3.50
2022-11-05T06:08:02.747Z,3.97
2022-11-05T06:10:52.175Z,4.27
2022-11-05T06:13:39.310Z,4.47
2022-11-05T06:16:28.507Z,4.57
2022-11-05T06:19:15.657Z,3.83
2022-11-05T06:22:02.981Z,4.73
2022-11-05T06:24:49.992Z,4.23
2022-11-05T06:27:37.732Z,3.80
2022-11-05T06:30:24.670Z,3.70
2022-11-05T06:33:13.640Z,3.87
2022-11-05T06:36:01.375Z,4.47
2022-11-05T06:38:48.545Z,5.90
2022-11-05T06:41:56.964Z,3.63
2022-11-05T06:44:42.542Z,3.97
2022-11-05T06:47:30.018Z,4.20
2022-11-05T06:50:18.506Z,3.90
2022-11-05T06:53:06.129Z,4.40
2022-11-05T06:55:53.228Z,4.00
2022-11-05T06:58:40.344Z,4.33
2022-11-05T07:01:27.736Z,4.23
2022-11-05T07:04:15.084Z,3.77
2022-11-05T07:07:03.573Z,3.80
2022-11-05T07:09:53.173Z,3.90
2022-11-05T07:12:40.072Z,3.67
2022-11-05T07:15:27.533Z,3.40
2022-11-05T07:18:14.932Z,3.13
2022-11-05T07:21:02.628Z,3.80
2022-11-05T07:23:51.221Z,3.33
2022-11-05T07:26:38.416Z,4.00
2022-11-05T07:29:25.145Z,3.43
2022-11-05T07:32:12.206Z,3.53
2022-11-05T07:34:59.023Z,4.53
2022-11-05T07:37:47.591Z,4.60
2022-11-05T07:40:35.917Z,6.30
2022-11-05T07:43:23.176Z,5.00
2022-11-05T07:46:13.660Z,4.70
2022-11-05T07:49:00.769Z,4.03
2022-11-05T07:51:48.150Z,3.80
2022-11-05T07:54:35.352Z,4.27
2022-11-05T07:57:24.026Z,3.77
2022-11-05T08:00:14.050Z,4.33
2022-11-05T08:03:07.642Z,4.70
2022-11-05T08:05:55.478Z,4.03
2022-11-05T08:08:42.388Z,4.20
2022-11-05T08:11:29.652Z,4.03
2022-11-05T08:14:18.096Z,4.27
2022-11-05T08:17:05.629Z,4.87
2022-11-05T08:19:52.801Z,4.43
2022-11-05T08:22:43.404Z,3.40
2022-11-05T08:25:30.869Z,4.97
2022-11-05T08:28:17.990Z,3.78
2022-11-05T08:31:06.746Z,3.25
2022-11-05T08:33:57.150Z,3.35
2022-11-05T08:36:47.181Z,3.53
2022-11-05T08:39:34.230Z,3.75
2022-11-05T08:42:21.495Z,3.30
2022-11-05T08:45:09.965Z,3.17
2022-11-05T08:48:01.319Z,3.37
2022-11-05T08:50:49.941Z,3.07
2022-11-05T08:53:37.193Z,3.10
2022-11-05T08:56:24.569Z,3.47
2022-11-05T08:59:11.814Z,2.80
2022-11-05T09:01:59.200Z,2.55
2022-11-05T09:04:47.715Z,3.05
2022-11-05T09:07:35.014Z,2.60
2022-11-05T09:10:21.941Z,2.38
2022-11-05T09:13:13.227Z,2.90
2022-11-05T09:16:04.009Z,2.45
2022-11-05T09:18:51.451Z,2.28
2022-11-05T09:21:39.927Z,2.58
2022-11-05T09:24:27.103Z,2.35
2022-11-05T09:27:14.676Z,2.75
2022-11-05T09:30:01.642Z,2.65
2022-11-05T09:32:49.221Z,2.50
2022-11-05T09:35:38.331Z,2.28
2022-11-05T09:38:26.986Z,2.10
2022-11-05T09:41:21.804Z,2.03
2022-11-05T09:44:14.595Z,2.10
2022-11-05T09:47:05.768Z,2.00
2022-11-05T09:49:55.628Z,1.75
2022-11-05T09:52:42.666Z,2.45
2022-11-05T09:55:35.753Z,1.75
2022-11-05T09:58:29.115Z,1.77
2022-11-05T10:01:20.170Z,1.95
2022-11-05T10:04:10.395Z,2.10
2022-11-05T10:07:01.858Z,2.10
2022-11-05T10:09:54.158Z,2.10
2022-11-05T10:12:46.635Z,1.73
2022-11-05T10:15:39.033Z,2.00
2022-11-05T10:18:31.464Z,2.17
2022-11-05T10:21:37.768Z,2.00
2022-11-05T10:24:28.679Z,2.30
2022-11-05T10:27:19.485Z,1.95
2022-11-05T10:30:11.132Z,2.15
2022-11-05T10:33:01.428Z,1.90
2022-11-05T10:35:52.116Z,1.60
2022-11-05T10:38:39.079Z,1.52
2022-11-05T10:41:43.298Z,1.83
2022-11-05T10:44:37.381Z,1.38
2022-11-05T10:47:40.725Z,1.88
2022-11-05T10:50:29.877Z,1.67
2022-11-05T10:53:20.284Z,1.52
2022-11-05T10:56:29.591Z,1.52
2022-11-05T10:59:24.586Z,1.77
2022-11-05T11:02:21.228Z,1.45
2022-11-05T11:05:11.647Z,1.50
2022-11-05T11:08:02.943Z,2.30
2022-11-05T11:10:52.128Z,1.70
2022-11-05T11:13:52.102Z,1.80
2022-11-05T11:16:41.320Z,1.95
2022-11-05T11:19:30.902Z,1.90
2022-11-05T11:22:22.145Z,1.67
2022-11-05T11:25:24.911Z,1.30
2022-11-05T11:28:19.032Z,1.52
2022-11-05T11:31:08.847Z,2.05
2022-11-05T11:34:01.437Z,1.77
2022-11-05T11:36:51.597Z,1.17
2022-11-05T11:39:40.573Z,1.65
2022-11-05T11:42:32.069Z,1.50
2022-11-05T11:45:21.944Z,1.42
2022-11-05T11:48:16.635Z,1.70
2022-11-05T11:51:30.128Z,1.48
2022-11-05T11:54:21.441Z,1.40
2022-11-05T11:57:23.555Z,1.40
2022-11-05T12:00:11.366Z,1.58
2022-11-05T12:03:13.789Z,1.38
2022-11-05T12:06:08.288Z,1.00
2022-11-05T12:09:07.300Z,1.30
2022-11-05T12:12:01.284Z,1.65
2022-11-05T12:14:56.333Z,1.73
2022-11-05T12:17:50.747Z,1.45
2022-11-05T12:21:05.834Z,1.30
2022-11-05T12:24:25.058Z,1.23
2022-11-05T12:27:24.397Z,1.88
2022-11-05T12:30:16.172Z,1.20
2022-11-05T12:33:20.906Z,0.95
2022-11-05T12:36:18.037Z,1.15
2022-11-05T12:39:30.923Z,1.40
2022-11-05T12:42:32.052Z,1.20
2022-11-05T12:45:30.697Z,0.80
2022-11-05T12:48:37.407Z,1.10
2022-11-05T12:51:50.334Z,1.05
2022-11-05T12:54:50.063Z,1.60
2022-11-05T12:57:41.899Z,1.23
2022-11-05T13:00:32.031Z,1.20
2022-11-05T13:03:28.279Z,1.23
2022-11-05T13:06:17.992Z,1.23
2022-11-05T13:09:09.980Z,0.95
2022-11-05T13:12:00.521Z,3.40
2022-11-05T13:14:53.179Z,1.88
2022-11-05T13:17:49.279Z,1.65
2022-11-05T13:20:40.524Z,1.00
2022-11-05T13:23:33.377Z,1.92
2022-11-05T13:26:27.791Z,1.23
2022-11-05T13:29:18.908Z,1.05
2022-11-05T13:32:28.921Z,1.13
2022-11-05T13:35:22.245Z,1.20
2022-11-05T13:38:33.703Z,1.48
2022-11-05T13:41:32.503Z,1.80
2022-11-05T13:44:52.802Z,1.33
2022-11-05T13:48:00.318Z,1.50
2022-11-05T13:51:17.003Z,1.50
2022-11-05T13:54:41.840Z,1.25
2022-11-05T13:58:01.521Z,1.60
2022-11-05T14:01:02.823Z,1.13
2022-11-05T14:03:52.143Z,1.60
2022-11-05T14:06:40.397Z,1.15
2022-11-05T14:09:28.183Z,0.95
2022-11-05T14:12:24.293Z,1.38
2022-11-05T14:15:21.059Z,1.38
2022-11-05T14:18:36.742Z,1.40
2022-11-05T14:24:41.416Z,1.30
2022-11-05T14:27:44.458Z,1.10
2022-11-05T14:30:45.023Z,1.30
2022-11-05T14:33:36.269Z,1.33
2022-11-05T14:36:37.499Z,1.20
2022-11-05T14:39:28.968Z,1.30
2022-11-05T14:42:21.164Z,1.50
2022-11-05T14:45:27.775Z,1.70
2022-11-05T14:48:32.010Z,1.67
2022-11-05T14:51:28.896Z,1.50
2022-11-05T14:54:22.661Z,1.30
2022-11-05T14:57:14.607Z,1.55
2022-11-05T15:00:01.917Z,1.33
2022-11-05T15:02:57.889Z,1.63
2022-11-05T15:05:52.148Z,1.50
2022-11-05T15:08:56.868Z,1.50
2022-11-05T15:11:51.012Z,1.52
2022-11-05T15:14:48.068Z,1.63
2022-11-05T15:17:39.793Z,1.38
2022-11-05T15:20:39.791Z,1.50
2022-11-05T15:23:37.259Z,1.70
2022-11-05T15:26:31.195Z,1.42
2022-11-05T15:29:22.083Z,2.00
2022-11-05T15:32:17.721Z,1.57
2022-11-05T15:35:24.634Z,1.93
2022-11-05T15:38:28.021Z,1.50
2022-11-05T15:41:18.097Z,1.60
2022-11-05T15:44:05.554Z,2.00
2022-11-05T15:47:06.815Z,2.10
2022-11-05T15:49:57.000Z,1.58
2022-11-05T15:52:50.666Z,2.40
2022-11-05T15:55:48.011Z,1.67
2022-11-05T15:58:35.478Z,2.00
2022-11-05T16:01:24.831Z,1.80
2022-11-05T16:04:17.012Z,2.10
2022-11-05T16:07:11.857Z,2.17
2022-11-05T16:10:00.724Z,2.53
2022-11-05T16:12:47.869Z,3.00
2022-11-05T16:15:35.185Z,2.40
2022-11-05T16:18:23.909Z,3.10
2022-11-05T16:21:12.891Z,3.00
2022-11-05T16:24:01.917Z,3.03
2022-11-05T16:27:03.735Z,3.30
2022-11-05T16:29:53.016Z,3.60
2022-11-05T16:32:39.828Z,4.27
2022-11-05T16:35:27.265Z,4.83
2022-11-05T16:38:14.904Z,4.00
2022-11-05T16:41:03.382Z,3.90
2022-11-05T16:43:55.648Z,4.20
2022-11-05T16:46:44.800Z,3.80
2022-11-05T16:49:32.065Z,4.73
2022-11-05T16:52:19.471Z,4.47
2022-11-05T16:55:07.062Z,4.53
2022-11-05T16:57:56.607Z,3.70
2022-11-05T17:00:43.685Z,4.30
2022-11-05T17:03:30.826Z,5.03
2022-11-05T17:06:19.278Z,3.83
2022-11-05T17:09:06.494Z,4.30
2022-11-05T17:11:53.817Z,4.50
2022-11-05T17:14:42.699Z,5.33
2022-11-05T17:17:29.952Z,6.37
2022-11-05T17:20:27.417Z,5.40
2022-11-05T17:23:16.712Z,5.27
2022-11-05T17:26:06.816Z,5.00
2022-11-05T17:28:53.908Z,5.20
2022-11-05T17:31:42.951Z,5.17
2022-11-05T17:34:30.022Z,5.43
2022-11-05T17:37:17.113Z,5.83
2022-11-05T17:40:06.456Z,6.67
2022-11-05T17:42:53.713Z,7.07
2022-11-05T17:45:45.180Z,6.87
2022-11-05T17:48:33.821Z,7.27
2022-11-05T17:51:21.274Z,7.37
2022-11-05T17:54:08.401Z,7.03
2022-11-05T17:56:55.483Z,6.67
2022-11-05T17:59:42.965Z,7.63
2022-11-05T18:02:30.478Z,8.03
2022-11-05T18:05:19.929Z,8.50
2022-11-05T18:08:07.970Z,8.70
2022-11-05T18:10:55.341Z,8.73
2022-11-05T18:13:42.747Z,8.43
2022-11-05T18:16:30.022Z,7.30
2022-11-05T18:19:18.345Z,6.63
2022-11-05T18:22:07.217Z,5.33
2022-11-05T18:24:54.893Z,5.10
2022-11-05T18:27:42.836Z,5.37
2022-11-05T18:30:30.300Z,5.20
2022-11-05T18:33:18.115Z,5.30
2022-11-05T18:36:06.093Z,4.77
2022-11-05T18:38:55.406Z,4.27
2022-11-05T18:41:43.019Z,4.50
2022-11-05T18:44:33.730Z,4.77
2022-11-05T18:47:25.042Z,4.90
2022-11-05T18:50:14.068Z,5.03
2022-11-05T18:53:02.550Z,5.50
2022-11-05T18:55:52.570Z,5.10
2022-11-05T18:58:41.299Z,4.50
2022-11-05T19:01:32.271Z,4.27
2022-11-05T19:04:22.026Z,4.50
2022-11-05T19:07:23.766Z,4.83
2022-11-05T19:10:11.797Z,4.23
2022-11-05T19:13:04.310Z,4.23
2022-11-05T19:15:53.053Z,3.97
2022-11-05T19:18:44.493Z,3.80
2022-11-05T19:21:32.157Z,4.03
2022-11-05T19:24:19.068Z,4.27
2022-11-05T19:27:06.370Z,4.33
2022-11-05T19:29:55.134Z,4.40
2022-11-05T19:32:42.416Z,4.10
2022-11-05T19:35:29.591Z,4.57
2022-11-05T19:38:16.842Z,4.03
2022-11-05T19:41:07.862Z,3.87
2022-11-05T19:43:57.875Z,4.63
2022-11-05T19:46:46.547Z,4.33
2022-11-05T19:49:33.743Z,4.13
2022-11-05T19:52:20.933Z,5.20
2022-11-05T19:55:12.102Z,4.10
2022-11-05T19:57:59.620Z,4.70
2022-11-05T20:00:46.822Z,4.30
2022-11-05T20:03:35.286Z,4.80
2022-11-05T20:06:25.638Z,4.97
2022-11-05T20:09:21.623Z,5.23
2022-11-05T20:12:09.532Z,5.53
2022-11-05T20:14:56.496Z,4.80
2022-11-05T20:17:43.735Z,5.30
2022-11-05T20:20:32.108Z,6.07
2022-11-05T20:23:19.434Z,6.13
2022-11-05T20:26:07.888Z,5.77
2022-11-05T20:28:55.261Z,5.60
2022-11-05T20:31:42.533Z,6.10
2022-11-05T20:34:30.007Z,5.17
2022-11-05T20:37:18.596Z,5.93
2022-11-05T20:40:06.908Z,5.13
2022-11-05T20:42:53.638Z,5.70
2022-11-05T20:45:40.935Z,4.87
2022-11-05T20:48:30.947Z,4.87
2022-11-05T20:51:20.404Z,5.53
2022-11-05T20:54:08.662Z,4.70
2022-11-05T20:56:55.992Z,5.30
2022-11-05T20:59:43.314Z,5.20
2022-11-05T21:02:30.372Z,5.10
2022-11-05T21:05:17.428Z,5.07
2022-11-05T21:08:04.791Z,5.60
2022-11-05T21:10:53.623Z,5.33
2022-11-05T21:13:41.061Z,5.13
2022-11-05T21:16:28.370Z,4.87
2022-11-05T21:19:16.305Z,5.77
2022-11-05T21:22:04.162Z,4.57
2022-11-05T21:24:51.660Z,5.33
2022-11-05T21:27:43.545Z,4.67
2022-11-05T21:30:31.806Z,4.03
2022-11-05T21:33:19.909Z,5.13
2022-11-05T21:36:08.729Z,4.73
2022-11-05T21:38:55.755Z,4.47
2022-11-05T21:41:43.516Z,4.33
2022-11-05T21:44:32.337Z,4.60
2022-11-05T21:47:19.250Z,4.23
2022-11-05T21:50:07.148Z,3.87
2022-11-05T21:53:11.849Z,3.93
2022-11-05T21:56:16.313Z,4.17
2022-11-05T21:59:20.819Z,4.43
2022-11-05T22:02:11.270Z,4.60
2022-11-05T22:04:59.997Z,3.73
2022-11-05T22:07:46.893Z,4.53
2022-11-05T22:10:34.027Z,3.57
2022-11-05T22:13:21.272Z,3.50
2022-11-05T22:16:09.704Z,3.93
2022-11-05T22:18:59.175Z,4.00
2022-11-05T22:21:46.517Z,3.97
2022-11-05T22:24:34.616Z,3.97
2022-11-05T22:27:22.403Z,3.90
2022-11-05T22:30:10.389Z,3.70
2022-11-05T22:32:57.403Z,3.80
2022-11-05T22:35:45.994Z,3.73
2022-11-05T22:38:33.173Z,3.70
2022-11-05T22:41:22.852Z,3.67
2022-11-05T22:44:10.593Z,3.80
2022-11-05T22:46:57.535Z,3.63
2022-11-05T22:49:45.241Z,3.70
2022-11-05T22:52:33.828Z,3.50
2022-11-05T22:55:21.140Z,3.40
2022-11-05T22:58:08.357Z,3.40
2022-11-05T23:00:55.632Z,3.80
2022-11-05T23:03:44.623Z,3.40
2022-11-05T23:07:02.149Z,3.77
2022-11-05T23:10:08.019Z,3.30
2022-11-05T23:12:56.105Z,3.63
2022-11-05T23:16:00.813Z,3.10
2022-11-05T23:19:05.172Z,3.93
2022-11-05T23:22:09.496Z,3.57
2022-11-05T23:24:57.895Z,3.50
2022-11-05T23:27:46.639Z,3.93
2022-11-05T23:30:34.026Z,3.37
2022-11-05T23:33:19.933Z,4.17
2022-11-05T23:36:24.761Z,3.40
2022-11-05T23:39:11.839Z,3.43
2022-11-05T23:42:17.931Z,3.73
2022-11-05T23:45:23.399Z,3.90
2022-11-05T23:48:18.572Z,3.43
2022-11-05T23:51:08.737Z,3.57
2022-11-05T23:53:56.045Z,4.13
2022-11-05T23:56:43.331Z,3.80
2022-11-05T23:59:31.917Z,3.40
